createdAt,value
2023-04-14T00:00:38.346Z,2.58
2023-04-14T00:01:20.289Z,2.05
2023-04-14T00:02:02.010Z,2.72
2023-04-14T00:02:43.870Z,4.00
2023-04-14T00:03:25.887Z,4.90
2023-04-14T00:04:07.936Z,4.82
2023-04-14T00:04:53.526Z,2.90
2023-04-14T00:05:35.458Z,2.80
2023-04-14T00:06:17.384Z,3.40
2023-04-14T00:07:00.031Z,3.25
2023-04-14T00:07:41.857Z,3.88
2023-04-14T00:08:23.647Z,4.45
2023-04-14T00:09:05.325Z,3.63
2023-04-14T00:09:47.113Z,3.72
2023-04-14T00:10:28.803Z,3.28
2023-04-14T00:11:10.700Z,4.30
2023-04-14T00:11:52.762Z,3.47
2023-04-14T00:12:34.433Z,3.47
2023-04-14T00:13:16.100Z,3.05
2023-04-14T00:13:58.224Z,3.53
2023-04-14T00:14:39.864Z,3.30
2023-04-14T00:15:21.963Z,2.63
2023-04-14T00:16:06.124Z,2.65
2023-04-14T00:16:47.855Z,3.72
2023-04-14T00:17:31.150Z,2.50
2023-04-14T00:18:12.878Z,3.55
2023-04-14T00:18:54.547Z,2.67
2023-04-14T00:19:36.169Z,2.53
2023-04-14T00:20:17.770Z,4.05
2023-04-14T00:20:59.458Z,3.90
2023-04-14T00:21:41.233Z,3.10
2023-04-14T00:22:22.962Z,3.42
2023-04-14T00:23:04.689Z,3.85
2023-04-14T00:23:46.297Z,3.38
2023-04-14T00:24:27.924Z,4.20
2023-04-14T00:25:09.992Z,3.92
2023-04-14T00:25:51.684Z,3.10
2023-04-14T00:26:33.435Z,3.70
2023-04-14T00:27:15.705Z,3.22
2023-04-14T00:27:57.337Z,3.40
2023-04-14T00:28:39.031Z,3.85
2023-04-14T00:29:20.819Z,3.97
2023-04-14T00:30:02.496Z,4.25
2023-04-14T00:30:45.509Z,3.40
2023-04-14T00:31:27.365Z,3.53
2023-04-14T00:32:09.047Z,3.75
2023-04-14T00:32:50.839Z,4.40
2023-04-14T00:33:32.637Z,3.30
2023-04-14T00:34:16.469Z,3.58
2023-04-14T00:35:00.108Z,3.58
2023-04-14T00:35:41.823Z,3.30
2023-04-14T00:36:23.557Z,3.25
2023-04-14T00:37:05.259Z,2.92
2023-04-14T00:37:47.024Z,3.55
2023-04-14T00:38:28.719Z,3.40
2023-04-14T00:39:10.622Z,3.45
2023-04-14T00:39:52.340Z,4.13
2023-04-14T00:40:34.033Z,3.80
2023-04-14T00:41:15.698Z,3.25
2023-04-14T00:41:57.423Z,3.55
2023-04-14T00:42:45.632Z,3.50
2023-04-14T00:43:27.418Z,3.72
2023-04-14T00:44:09.717Z,3.50
2023-04-14T00:44:51.358Z,3.60
2023-04-14T00:45:44.715Z,3.53
2023-04-14T00:46:26.592Z,3.50
2023-04-14T00:47:08.193Z,3.55
2023-04-14T00:47:50.772Z,3.85
2023-04-14T00:48:32.771Z,3.10
2023-04-14T00:49:15.562Z,3.33
2023-04-14T00:49:58.396Z,4.18
2023-04-14T00:50:40.302Z,3.50
2023-04-14T00:51:23.577Z,3.67
2023-04-14T00:52:06.020Z,3.60
2023-04-14T00:52:50.067Z,3.42
2023-04-14T00:53:32.711Z,3.85
2023-04-14T00:54:17.478Z,4.40
2023-04-14T00:55:00.786Z,3.83
2023-04-14T00:55:42.980Z,4.45
2023-04-14T00:56:26.483Z,4.85
2023-04-14T00:57:09.337Z,5.10
2023-04-14T00:57:51.136Z,4.35
2023-04-14T00:58:32.834Z,4.90
2023-04-14T00:59:16.882Z,4.38
2023-04-14T01:00:00.761Z,4.32
2023-04-14T01:00:42.635Z,4.10
2023-04-14T01:01:49.238Z,4.72
2023-04-14T01:02:34.147Z,5.20
2023-04-14T01:03:16.603Z,5.30
2023-04-14T01:03:58.576Z,5.15
2023-04-14T01:04:52.892Z,6.03
2023-04-14T01:05:36.277Z,6.47
2023-04-14T01:06:17.865Z,6.20
2023-04-14T01:06:59.473Z,6.28
2023-04-14T01:07:41.578Z,5.25
2023-04-14T01:08:24.966Z,4.97
2023-04-14T01:09:07.028Z,4.88
2023-04-14T01:09:50.171Z,4.63
2023-04-14T01:10:41.240Z,5.78
2023-04-14T01:11:40.131Z,8.15
2023-04-14T01:12:30.596Z,23.35
2023-04-14T01:13:35.961Z,30.95
2023-04-14T01:14:42.890Z,42.20
2023-04-14T01:15:35.558Z,19.67
2023-04-14T01:16:31.829Z,15.93
2023-04-14T01:17:52.572Z,14.93
2023-04-14T01:18:43.256Z,7.75
2023-04-14T01:19:24.787Z,8.85
2023-04-14T01:20:32.976Z,17.73
2023-04-14T01:21:22.804Z,14.68
2023-04-14T01:22:06.287Z,29.50
2023-04-14T01:22:54.204Z,12.45
2023-04-14T01:23:41.861Z,7.22
2023-04-14T01:24:39.784Z,13.48
2023-04-14T01:25:39.547Z,19.70
2023-04-14T01:26:31.910Z,8.35
2023-04-14T01:27:35.307Z,18.50
2023-04-14T01:28:55.543Z,43.78
2023-04-14T01:29:55.442Z,27.38
2023-04-14T01:30:58.618Z,7.80
2023-04-14T01:31:55.234Z,53.92
2023-04-14T01:32:43.028Z,116.55
2023-04-14T01:33:26.953Z,102.60
2023-04-14T01:34:34.864Z,116.60
2023-04-14T01:35:26.333Z,58.75
2023-04-14T01:36:22.439Z,24.48
2023-04-14T01:37:31.493Z,97.38
2023-04-14T01:38:22.347Z,163.95
2023-04-14T01:39:08.329Z,37.47
2023-04-14T01:39:53.836Z,10.38
2023-04-14T01:40:41.222Z,33.70
2023-04-14T01:41:24.183Z,95.18
2023-04-14T01:42:11.273Z,34.90
2023-04-14T01:43:02.194Z,10.43
2023-04-14T01:43:47.987Z,6.63
2023-04-14T01:44:31.545Z,6.20
2023-04-14T01:45:23.043Z,8.75
2023-04-14T01:46:07.404Z,10.02
2023-04-14T01:46:55.052Z,7.57
2023-04-14T01:47:37.968Z,5.78
2023-04-14T01:48:20.158Z,12.68
2023-04-14T01:49:02.838Z,6.15
2023-04-14T01:49:45.721Z,5.47
2023-04-14T01:50:28.518Z,6.50
2023-04-14T01:51:13.515Z,5.93
2023-04-14T01:51:55.736Z,6.97
2023-04-14T01:52:39.316Z,7.10
2023-04-14T01:53:23.040Z,11.32
2023-04-14T01:54:06.103Z,10.23
2023-04-14T01:54:50.827Z,6.28
2023-04-14T01:55:36.084Z,8.63
2023-04-14T01:56:19.930Z,5.70
2023-04-14T01:57:03.752Z,9.55
2023-04-14T01:57:48.297Z,5.75
2023-04-14T01:58:32.145Z,15.65
2023-04-14T01:59:15.571Z,15.43
2023-04-14T02:00:00.946Z,8.27
2023-04-14T02:00:44.222Z,10.98
2023-04-14T02:01:27.831Z,6.13
2023-04-14T02:02:12.831Z,6.00
2023-04-14T02:02:55.814Z,7.85
2023-04-14T02:03:39.442Z,8.18
2023-04-14T02:04:25.536Z,6.45
2023-04-14T02:05:09.916Z,11.90
2023-04-14T02:05:55.388Z,12.88
2023-04-14T02:06:38.872Z,13.82
2023-04-14T02:07:22.040Z,19.13
2023-04-14T02:08:07.455Z,18.20
2023-04-14T02:08:50.913Z,8.65
2023-04-14T02:09:34.020Z,6.75
2023-04-14T02:10:19.942Z,7.10
2023-04-14T02:11:02.498Z,6.70
2023-04-14T02:11:49.002Z,6.03
2023-04-14T02:12:31.420Z,12.13
2023-04-14T02:13:14.371Z,24.20
2023-04-14T02:13:56.631Z,32.47
2023-04-14T02:14:42.584Z,9.52
2023-04-14T02:15:26.176Z,7.97
2023-04-14T02:16:10.852Z,7.95
2023-04-14T02:16:54.156Z,19.00
2023-04-14T02:17:36.717Z,12.40
2023-04-14T02:18:22.156Z,23.88
2023-04-14T02:19:05.185Z,34.50
2023-04-14T02:19:48.574Z,10.85
2023-04-14T02:20:30.452Z,11.10
2023-04-14T02:21:15.232Z,8.52
2023-04-14T02:21:58.602Z,5.53
2023-04-14T02:22:40.432Z,9.32
2023-04-14T02:23:22.034Z,9.93
2023-04-14T02:24:03.895Z,9.75
2023-04-14T02:24:47.747Z,12.88
2023-04-14T02:25:33.623Z,17.35
2023-04-14T02:26:18.639Z,6.00
2023-04-14T02:27:10.568Z,39.83
2023-04-14T02:27:58.674Z,79.25
2023-04-14T02:28:50.069Z,22.00
2023-04-14T02:29:33.758Z,16.58
2023-04-14T02:30:20.100Z,18.13
2023-04-14T02:31:07.429Z,6.85
2023-04-14T02:32:09.594Z,21.60
2023-04-14T02:32:57.351Z,19.30
2023-04-14T02:33:39.939Z,11.60
2023-04-14T02:34:25.249Z,14.18
2023-04-14T02:35:13.575Z,27.67
2023-04-14T02:36:04.446Z,19.75
2023-04-14T02:36:52.376Z,10.15
2023-04-14T02:37:41.417Z,18.77
2023-04-14T02:38:33.672Z,28.85
2023-04-14T02:39:19.375Z,6.03
2023-04-14T02:40:05.955Z,14.13
2023-04-14T02:40:48.826Z,29.67
2023-04-14T02:41:32.723Z,9.55
2023-04-14T02:42:16.297Z,5.32
2023-04-14T02:43:02.918Z,7.75
2023-04-14T02:43:49.244Z,102.28
2023-04-14T02:44:35.486Z,69.05
2023-04-14T02:45:22.525Z,59.40
2023-04-14T02:46:06.456Z,46.90
2023-04-14T02:46:57.779Z,74.25
2023-04-14T02:47:47.055Z,74.97
2023-04-14T02:48:32.444Z,26.70
2023-04-14T02:49:16.443Z,48.90
2023-04-14T02:50:00.463Z,162.00
2023-04-14T02:50:46.426Z,58.05
2023-04-14T02:51:35.632Z,81.70
2023-04-14T02:52:19.195Z,91.18
2023-04-14T02:53:03.675Z,73.10
2023-04-14T02:53:50.721Z,81.05
2023-04-14T02:54:46.538Z,49.00
2023-04-14T02:55:29.616Z,83.10
2023-04-14T02:56:12.116Z,45.85
2023-04-14T02:56:57.443Z,80.30
2023-04-14T02:57:41.176Z,47.95
2023-04-14T02:58:25.495Z,36.33
2023-04-14T02:59:07.814Z,15.57
2023-04-14T02:59:52.618Z,15.20
2023-04-14T03:00:35.660Z,5.45
2023-04-14T03:01:19.274Z,9.38
2023-04-14T03:02:06.015Z,5.65
2023-04-14T03:02:53.328Z,5.10
2023-04-14T03:03:37.654Z,4.85
2023-04-14T03:04:23.542Z,4.70
2023-04-14T03:05:06.707Z,6.78
2023-04-14T03:05:57.238Z,4.53
2023-04-14T03:06:39.550Z,4.93
2023-04-14T03:07:21.883Z,8.35
2023-04-14T03:08:05.138Z,10.07
2023-04-14T03:08:47.848Z,4.60
2023-04-14T03:09:32.043Z,5.38
2023-04-14T03:10:14.665Z,5.85
2023-04-14T03:10:57.203Z,9.90
2023-04-14T03:11:42.226Z,12.77
2023-04-14T03:12:25.337Z,42.47
2023-04-14T03:13:07.879Z,39.55
2023-04-14T03:13:53.702Z,32.55
2023-04-14T03:14:37.474Z,29.35
2023-04-14T03:15:21.641Z,37.13
2023-04-14T03:16:04.240Z,14.65
2023-04-14T03:16:49.498Z,26.30
2023-04-14T03:17:32.784Z,90.68
2023-04-14T03:18:15.739Z,100.65
2023-04-14T03:18:58.341Z,73.50
2023-04-14T03:19:41.696Z,96.63
2023-04-14T03:20:23.838Z,64.55
2023-04-14T03:21:07.548Z,44.97
2023-04-14T03:21:54.644Z,35.40
2023-04-14T03:22:40.720Z,69.13
2023-04-14T03:23:27.366Z,32.70
2023-04-14T03:24:18.042Z,61.85
2023-04-14T03:25:00.675Z,51.78
2023-04-14T03:25:46.526Z,18.23
2023-04-14T03:26:36.945Z,10.23
2023-04-14T03:27:26.212Z,4.30
2023-04-14T03:28:15.921Z,3.80
2023-04-14T03:29:02.447Z,5.63
2023-04-14T03:29:48.554Z,16.17
2023-04-14T03:30:33.740Z,11.95
2023-04-14T03:31:19.045Z,3.80
2023-04-14T03:32:06.985Z,5.78
2023-04-14T03:32:52.518Z,5.40
2023-04-14T03:33:35.621Z,3.15
2023-04-14T03:34:19.087Z,8.25
2023-04-14T03:35:07.787Z,6.75
2023-04-14T03:35:52.787Z,4.18
2023-04-14T03:36:36.605Z,11.40
2023-04-14T03:37:24.305Z,6.28
2023-04-14T03:38:09.727Z,5.03
2023-04-14T03:38:55.341Z,3.28
2023-04-14T03:39:39.155Z,3.75
2023-04-14T03:40:23.898Z,6.90
2023-04-14T03:41:07.375Z,15.55
2023-04-14T03:41:51.706Z,13.27
2023-04-14T03:42:36.322Z,22.98
2023-04-14T03:43:22.416Z,23.13
2023-04-14T03:44:15.618Z,25.88
2023-04-14T03:45:01.578Z,15.10
2023-04-14T03:45:49.192Z,37.97
2023-04-14T03:46:31.377Z,26.45
2023-04-14T03:47:14.452Z,70.55
2023-04-14T03:48:02.576Z,70.35
2023-04-14T03:48:50.381Z,14.73
2023-04-14T03:49:33.310Z,20.90
2023-04-14T03:50:17.464Z,10.30
2023-04-14T03:51:02.155Z,14.88
2023-04-14T03:51:49.537Z,7.82
2023-04-14T03:52:36.187Z,9.40
2023-04-14T03:53:19.369Z,12.05
2023-04-14T03:54:03.014Z,14.18
2023-04-14T03:54:45.900Z,3.83
2023-04-14T03:55:31.847Z,3.25
2023-04-14T03:56:15.490Z,3.22
2023-04-14T03:56:58.992Z,5.72
2023-04-14T03:57:43.936Z,3.10
2023-04-14T03:58:29.308Z,3.10
2023-04-14T03:59:15.301Z,8.60
2023-04-14T04:00:00.212Z,5.80
2023-04-14T04:00:43.003Z,18.80
2023-04-14T04:01:26.849Z,22.48
2023-04-14T04:02:09.748Z,39.35
2023-04-14T04:02:52.319Z,36.28
2023-04-14T04:03:36.839Z,32.13
2023-04-14T04:04:19.177Z,28.52
2023-04-14T04:05:01.924Z,29.45
2023-04-14T04:05:44.764Z,40.28
2023-04-14T04:06:27.709Z,33.20
2023-04-14T04:07:13.142Z,3.75
2023-04-14T04:07:58.711Z,19.67
2023-04-14T04:08:41.655Z,7.40
2023-04-14T04:09:25.254Z,4.43
2023-04-14T04:10:08.203Z,4.22
2023-04-14T04:10:51.400Z,4.20
2023-04-14T04:11:34.969Z,7.97
2023-04-14T04:12:20.432Z,4.03
2023-04-14T04:13:03.238Z,4.57
2023-04-14T04:13:48.372Z,4.88
2023-04-14T04:14:32.015Z,4.50
2023-04-14T04:15:13.849Z,5.63
2023-04-14T04:15:58.460Z,5.50
2023-04-14T04:16:42.558Z,5.05
2023-04-14T04:17:26.411Z,4.88
2023-04-14T04:18:10.976Z,5.32
2023-04-14T04:18:54.622Z,5.10
2023-04-14T04:19:44.651Z,4.13
2023-04-14T04:20:27.142Z,4.28
2023-04-14T04:21:10.431Z,4.35
2023-04-14T04:21:57.444Z,4.35
2023-04-14T04:22:41.888Z,8.52
2023-04-14T04:23:25.680Z,7.85
2023-04-14T04:24:10.267Z,5.20
2023-04-14T04:24:54.666Z,4.95
2023-04-14T04:25:41.560Z,5.00
2023-04-14T04:26:31.373Z,5.68
2023-04-14T04:27:26.681Z,4.47
2023-04-14T04:28:12.737Z,8.48
2023-04-14T04:28:57.934Z,4.80
2023-04-14T04:29:40.807Z,4.15
2023-04-14T04:30:24.015Z,3.45
2023-04-14T04:31:06.733Z,3.75
2023-04-14T04:31:48.553Z,3.30
2023-04-14T04:32:30.858Z,3.40
2023-04-14T04:33:13.956Z,3.55
2023-04-14T04:33:58.795Z,3.97
2023-04-14T04:34:41.251Z,3.50
2023-04-14T04:35:24.624Z,3.83
2023-04-14T04:36:07.379Z,4.15
2023-04-14T04:36:54.565Z,4.13
2023-04-14T04:37:39.194Z,4.28
2023-04-14T04:38:20.996Z,4.53
2023-04-14T04:39:03.317Z,4.40
2023-04-14T04:39:49.167Z,4.93
2023-04-14T04:40:38.577Z,4.68
2023-04-14T04:41:28.354Z,5.22
2023-04-14T04:42:11.917Z,5.20
2023-04-14T04:42:53.503Z,4.82
2023-04-14T04:43:35.412Z,4.57
2023-04-14T04:44:17.165Z,5.72
2023-04-14T04:44:58.953Z,4.63
2023-04-14T04:45:59.039Z,4.82
2023-04-14T04:46:55.388Z,4.30
2023-04-14T04:47:40.271Z,4.20
2023-04-14T04:48:21.867Z,4.00
2023-04-14T04:49:03.684Z,4.07
2023-04-14T04:49:45.331Z,4.00
2023-04-14T04:50:26.887Z,4.85
2023-04-14T04:51:08.514Z,4.07
2023-04-14T04:51:50.257Z,4.18
2023-04-14T04:52:33.598Z,3.90
2023-04-14T04:53:15.439Z,3.25
2023-04-14T04:53:57.014Z,3.55
2023-04-14T04:54:38.602Z,3.78
2023-04-14T04:55:21.075Z,3.92
2023-04-14T04:56:02.865Z,3.97
2023-04-14T04:56:44.470Z,4.30
2023-04-14T04:57:26.071Z,3.42
2023-04-14T04:58:11.174Z,3.30
2023-04-14T04:58:53.250Z,3.30
2023-04-14T04:59:36.606Z,3.70
2023-04-14T05:00:22.811Z,3.15
2023-04-14T05:01:09.372Z,3.30
2023-04-14T05:01:51.447Z,3.65
2023-04-14T05:02:33.302Z,3.63
2023-04-14T05:03:15.025Z,3.22
2023-04-14T05:03:56.996Z,3.65
2023-04-14T05:04:38.669Z,3.00
2023-04-14T05:05:20.481Z,3.00
2023-04-14T05:06:02.371Z,3.20
2023-04-14T05:06:43.939Z,3.60
2023-04-14T05:07:25.497Z,3.20
2023-04-14T05:08:07.759Z,3.20
2023-04-14T05:08:53.492Z,3.35
2023-04-14T05:09:35.392Z,3.28
2023-04-14T05:10:17.144Z,2.60
2023-04-14T05:10:58.899Z,2.60
2023-04-14T05:11:41.462Z,5.13
2023-04-14T05:12:23.192Z,3.95
2023-04-14T05:13:04.817Z,2.70
2023-04-14T05:13:46.873Z,3.10
2023-04-14T05:14:28.450Z,2.53
2023-04-14T05:15:10.898Z,2.50
2023-04-14T05:15:53.084Z,2.47
2023-04-14T05:16:34.743Z,2.30
2023-04-14T05:17:16.337Z,2.92
2023-04-14T05:17:59.130Z,3.67
2023-04-14T05:18:42.014Z,2.53
2023-04-14T05:19:23.653Z,2.95
2023-04-14T05:20:05.850Z,2.22
2023-04-14T05:20:47.506Z,2.50
2023-04-14T05:21:29.102Z,2.50
2023-04-14T05:22:10.935Z,2.47
2023-04-14T05:22:53.201Z,2.50
2023-04-14T05:23:37.398Z,2.78
2023-04-14T05:24:18.958Z,2.60
2023-04-14T05:25:01.307Z,2.65
2023-04-14T05:25:42.946Z,2.40
2023-04-14T05:27:14.077Z,2.63
2023-04-14T05:27:56.308Z,2.25
2023-04-14T05:28:38.217Z,2.25
2023-04-14T05:29:20.128Z,2.50
2023-04-14T05:30:01.930Z,2.30
2023-04-14T05:30:43.488Z,2.95
2023-04-14T05:31:25.461Z,2.45
2023-04-14T05:32:07.406Z,2.63
2023-04-14T05:32:49.116Z,3.28
2023-04-14T05:33:30.989Z,3.13
2023-04-14T05:34:12.628Z,2.95
2023-04-14T05:34:54.235Z,3.50
2023-04-14T05:35:36.098Z,3.13
2023-04-14T05:36:17.780Z,3.05
2023-04-14T05:36:59.473Z,2.85
2023-04-14T05:37:41.104Z,2.70
2023-04-14T05:38:22.825Z,3.13
2023-04-14T05:39:04.588Z,3.30
2023-04-14T05:39:46.237Z,5.78
2023-04-14T05:40:28.478Z,4.40
2023-04-14T05:41:10.220Z,3.85
2023-04-14T05:41:51.873Z,4.28
2023-04-14T05:42:33.448Z,4.20
2023-04-14T05:43:16.068Z,4.70
2023-04-14T05:43:57.719Z,4.82
2023-04-14T05:44:39.355Z,5.10
2023-04-14T05:45:21.112Z,6.05
2023-04-14T05:46:02.826Z,6.20
2023-04-14T05:46:44.512Z,5.47
2023-04-14T05:47:26.455Z,5.55
2023-04-14T05:48:08.542Z,5.55
2023-04-14T05:48:50.200Z,4.35
2023-04-14T05:49:31.857Z,4.43
2023-04-14T05:50:13.626Z,3.15
2023-04-14T05:50:55.412Z,3.65
2023-04-14T05:51:36.964Z,3.65
2023-04-14T05:52:18.587Z,3.70
2023-04-14T05:53:00.177Z,3.60
2023-04-14T05:53:41.751Z,3.28
2023-04-14T05:54:23.408Z,4.57
2023-04-14T05:55:05.354Z,3.92
2023-04-14T05:55:48.705Z,3.13
2023-04-14T05:56:30.556Z,3.25
2023-04-14T05:57:12.170Z,3.15
2023-04-14T05:57:53.778Z,3.60
2023-04-14T05:58:35.399Z,3.38
2023-04-14T05:59:17.353Z,2.88
2023-04-14T05:59:59.027Z,3.28
2023-04-14T06:00:40.773Z,3.72
2023-04-14T06:01:22.350Z,4.15
2023-04-14T06:02:07.298Z,3.60
2023-04-14T06:02:49.372Z,3.75
2023-04-14T06:03:31.924Z,4.57
2023-04-14T06:04:13.898Z,4.32
2023-04-14T06:04:56.304Z,4.93
2023-04-14T06:05:37.923Z,6.03
2023-04-14T06:06:22.476Z,5.45
2023-04-14T06:07:04.152Z,5.38
2023-04-14T06:07:46.976Z,5.13
2023-04-14T06:08:30.352Z,5.68
2023-04-14T06:09:12.022Z,4.90
2023-04-14T06:09:54.140Z,5.28
2023-04-14T06:10:35.837Z,4.53
2023-04-14T06:11:17.497Z,4.78
2023-04-14T06:11:59.209Z,4.47
2023-04-14T06:12:40.941Z,4.97
2023-04-14T06:13:22.974Z,5.15
2023-04-14T06:14:05.551Z,4.20
2023-04-14T06:14:47.207Z,6.03
2023-04-14T06:15:29.607Z,4.55
2023-04-14T06:16:11.184Z,4.65
2023-04-14T06:16:52.911Z,6.30
2023-04-14T06:17:35.363Z,4.53
2023-04-14T06:18:17.062Z,4.03
2023-04-14T06:18:58.854Z,3.95
2023-04-14T06:19:40.725Z,3.58
2023-04-14T06:20:22.380Z,6.65
2023-04-14T06:21:04.274Z,5.07
2023-04-14T06:21:47.041Z,3.90
2023-04-14T06:22:32.458Z,5.85
2023-04-14T06:23:14.123Z,3.33
2023-04-14T06:23:55.968Z,2.55
2023-04-14T06:24:37.606Z,3.85
2023-04-14T06:25:19.330Z,4.57
2023-04-14T06:26:01.289Z,3.78
2023-04-14T06:26:43.082Z,4.25
2023-04-14T06:27:25.285Z,3.72
2023-04-14T06:28:07.504Z,3.65
2023-04-14T06:28:49.160Z,6.10
2023-04-14T06:29:31.035Z,3.80
2023-04-14T06:30:15.300Z,4.88
2023-04-14T06:30:57.006Z,4.85
2023-04-14T06:31:38.728Z,4.22
2023-04-14T06:32:20.544Z,5.35
2023-04-14T06:33:04.701Z,3.92
2023-04-14T06:33:46.596Z,3.97
2023-04-14T06:34:28.189Z,3.72
2023-04-14T06:35:19.118Z,3.90
2023-04-14T06:36:04.127Z,4.97
2023-04-14T06:36:45.683Z,3.28
2023-04-14T06:37:27.290Z,3.97
2023-04-14T06:38:09.082Z,3.97
2023-04-14T06:38:50.687Z,2.80
2023-04-14T06:39:32.312Z,4.15
2023-04-14T06:40:13.975Z,3.13
2023-04-14T06:40:55.619Z,3.92
2023-04-14T06:41:37.236Z,2.90
2023-04-14T06:42:19.381Z,4.93
2023-04-14T06:43:01.097Z,6.22
2023-04-14T06:43:43.120Z,3.47
2023-04-14T06:44:24.840Z,3.92
2023-04-14T06:45:06.928Z,4.18
2023-04-14T06:45:50.688Z,3.75
2023-04-14T06:46:35.924Z,4.78
2023-04-14T06:47:19.680Z,3.90
2023-04-14T06:48:01.294Z,2.95
2023-04-14T06:48:43.638Z,3.92
2023-04-14T06:49:25.313Z,3.70
2023-04-14T06:50:07.309Z,5.65
2023-04-14T06:50:56.278Z,4.95
2023-04-14T06:51:39.231Z,2.72
2023-04-14T06:52:20.886Z,3.75
2023-04-14T06:53:02.987Z,4.70
2023-04-14T06:53:45.024Z,4.82
2023-04-14T06:54:26.820Z,5.72
2023-04-14T06:55:09.008Z,4.18
2023-04-14T06:56:08.929Z,3.45
2023-04-14T06:56:50.789Z,4.72
2023-04-14T06:57:32.438Z,4.85
2023-04-14T06:58:14.169Z,3.83
2023-04-14T06:58:55.874Z,5.30
2023-04-14T06:59:37.697Z,5.78
2023-04-14T07:00:19.602Z,4.82
2023-04-14T07:01:02.817Z,4.72
2023-04-14T07:01:44.671Z,5.57
2023-04-14T07:02:26.669Z,4.78
2023-04-14T07:03:09.327Z,4.03
2023-04-14T07:03:51.107Z,6.22
2023-04-14T07:04:32.992Z,6.82
2023-04-14T07:05:15.001Z,4.22
2023-04-14T07:06:08.225Z,4.20
2023-04-14T07:06:49.871Z,5.90
2023-04-14T07:07:37.380Z,5.07
2023-04-14T07:08:20.178Z,3.85
2023-04-14T07:09:01.845Z,3.28
2023-04-14T07:09:43.664Z,4.10
2023-04-14T07:10:25.376Z,3.33
2023-04-14T07:11:10.331Z,11.15
2023-04-14T07:11:53.497Z,4.40
2023-04-14T07:12:35.438Z,3.45
2023-04-14T07:13:17.122Z,5.25
2023-04-14T07:13:58.893Z,4.55
2023-04-14T07:14:41.332Z,5.20
2023-04-14T07:15:22.960Z,4.85
2023-04-14T07:16:06.582Z,3.90
2023-04-14T07:16:48.465Z,4.90
2023-04-14T07:17:30.517Z,5.70
2023-04-14T07:18:12.367Z,5.97
2023-04-14T07:18:54.072Z,4.18
2023-04-14T07:19:35.785Z,3.95
2023-04-14T07:20:17.479Z,6.75
2023-04-14T07:20:59.787Z,3.90
2023-04-14T07:21:41.706Z,4.18
2023-04-14T07:22:23.369Z,3.30
2023-04-14T07:23:04.949Z,3.42
2023-04-14T07:23:46.596Z,3.30
2023-04-14T07:24:28.237Z,5.55
2023-04-14T07:25:10.163Z,3.83
2023-04-14T07:25:54.015Z,6.90
2023-04-14T07:26:35.652Z,4.63
2023-04-14T07:27:17.327Z,4.95
2023-04-14T07:28:04.626Z,4.53
2023-04-14T07:28:47.118Z,4.65
2023-04-14T07:29:29.340Z,3.63
2023-04-14T07:30:11.544Z,10.30
2023-04-14T07:30:53.569Z,7.00
2023-04-14T07:31:37.952Z,4.18
2023-04-14T07:32:19.761Z,4.93
2023-04-14T07:33:02.371Z,4.10
2023-04-14T07:33:44.137Z,4.93
2023-04-14T07:34:25.970Z,3.30
2023-04-14T07:35:10.808Z,2.65
2023-04-14T07:36:01.893Z,3.65
2023-04-14T07:36:45.432Z,4.85
2023-04-14T07:37:27.170Z,6.57
2023-04-14T07:38:08.815Z,4.90
2023-04-14T07:38:51.514Z,3.85
2023-04-14T07:39:33.468Z,2.88
2023-04-14T07:40:15.886Z,4.97
2023-04-14T07:40:57.525Z,4.07
2023-04-14T07:41:39.176Z,3.53
2023-04-14T07:42:20.870Z,4.43
2023-04-14T07:43:02.802Z,5.45
2023-04-14T07:43:44.544Z,4.85
2023-04-14T07:44:26.390Z,3.70
2023-04-14T07:45:08.570Z,4.10
2023-04-14T07:45:52.410Z,4.85
2023-04-14T07:46:34.143Z,4.57
2023-04-14T07:47:16.180Z,4.30
2023-04-14T07:47:58.285Z,4.25
2023-04-14T07:48:40.270Z,3.55
2023-04-14T07:49:21.866Z,3.60
2023-04-14T07:50:03.862Z,4.68
2023-04-14T07:50:48.263Z,4.50
2023-04-14T07:51:29.878Z,3.60
2023-04-14T07:52:12.574Z,3.58
2023-04-14T07:52:55.295Z,2.72
2023-04-14T07:53:42.212Z,5.72
2023-04-14T07:54:24.360Z,3.88
2023-04-14T07:55:06.196Z,4.78
2023-04-14T07:55:47.841Z,4.55
2023-04-14T07:56:29.477Z,4.05
2023-04-14T07:57:11.270Z,3.10
2023-04-14T07:57:52.924Z,2.70
2023-04-14T07:58:34.539Z,2.95
2023-04-14T07:59:16.391Z,4.55
2023-04-14T07:59:58.061Z,3.42
2023-04-14T08:00:39.694Z,4.95
2023-04-14T08:01:21.354Z,7.60
2023-04-14T08:02:03.092Z,4.30
2023-04-14T08:02:45.067Z,4.95
2023-04-14T08:03:27.100Z,4.57
2023-04-14T08:04:09.284Z,3.60
2023-04-14T08:04:51.023Z,4.72
2023-04-14T08:05:32.763Z,4.13
2023-04-14T08:06:14.457Z,5.13
2023-04-14T08:06:56.448Z,4.28
2023-04-14T08:07:38.681Z,5.80
2023-04-14T08:08:20.393Z,4.47
2023-04-14T08:09:02.515Z,3.90
2023-04-14T08:09:44.504Z,6.32
2023-04-14T08:10:26.285Z,4.15
2023-04-14T08:11:07.933Z,3.80
2023-04-14T08:11:49.528Z,4.82
2023-04-14T08:12:31.465Z,3.67
2023-04-14T08:13:13.066Z,4.60
2023-04-14T08:13:54.678Z,6.03
2023-04-14T08:14:36.401Z,5.47
2023-04-14T08:15:18.268Z,3.63
2023-04-14T08:15:59.956Z,5.43
2023-04-14T08:16:41.885Z,6.95
2023-04-14T08:17:24.418Z,3.15
2023-04-14T08:18:06.570Z,4.43
2023-04-14T08:18:48.997Z,6.32
2023-04-14T08:19:31.604Z,4.43
2023-04-14T08:20:13.336Z,4.88
2023-04-14T08:20:54.971Z,5.53
2023-04-14T08:21:36.710Z,5.25
2023-04-14T08:22:18.548Z,4.82
2023-04-14T08:23:00.267Z,5.53
2023-04-14T08:23:42.104Z,4.43
2023-04-14T08:24:23.812Z,4.53
2023-04-14T08:25:06.618Z,5.18
2023-04-14T08:25:48.513Z,2.83
2023-04-14T08:26:30.484Z,3.45
2023-04-14T08:27:12.089Z,4.38
2023-04-14T08:27:53.757Z,4.93
2023-04-14T08:28:35.673Z,5.45
2023-04-14T08:29:17.346Z,3.63
2023-04-14T08:29:59.063Z,3.10
2023-04-14T08:30:41.368Z,8.43
2023-04-14T08:31:24.464Z,5.50
2023-04-14T08:32:06.439Z,6.57
2023-04-14T08:32:48.877Z,3.90
2023-04-14T08:33:30.742Z,3.42
2023-04-14T08:34:12.499Z,5.18
2023-04-14T08:35:37.798Z,6.63
2023-04-14T08:36:01.179Z,4.18
2023-04-14T08:36:42.882Z,5.68
2023-04-14T08:37:24.532Z,4.28
2023-04-14T08:38:06.261Z,5.10
2023-04-14T08:38:47.996Z,3.47
2023-04-14T08:39:29.688Z,4.47
2023-04-14T08:40:12.340Z,6.50
2023-04-14T08:40:56.334Z,5.03
2023-04-14T08:41:39.109Z,4.75
2023-04-14T08:42:21.932Z,5.32
2023-04-14T08:43:03.914Z,5.18
2023-04-14T08:43:46.245Z,5.60
2023-04-14T08:44:29.278Z,4.97
2023-04-14T08:45:12.169Z,5.55
2023-04-14T08:45:55.438Z,3.05
2023-04-14T08:46:37.204Z,5.82
2023-04-14T08:47:21.656Z,3.58
2023-04-14T08:48:04.763Z,3.70
2023-04-14T08:48:50.321Z,2.92
2023-04-14T08:49:44.013Z,3.45
2023-04-14T08:50:31.982Z,4.85
2023-04-14T08:51:34.058Z,4.25
2023-04-14T08:52:18.162Z,3.50
2023-04-14T08:53:04.160Z,4.60
2023-04-14T08:53:48.288Z,6.63
2023-04-14T08:54:31.571Z,4.28
2023-04-14T08:55:15.497Z,4.25
2023-04-14T08:56:02.314Z,4.68
2023-04-14T08:56:44.128Z,3.95
2023-04-14T08:57:26.859Z,3.38
2023-04-14T08:58:12.072Z,5.63
2023-04-14T08:58:54.134Z,5.50
2023-04-14T08:59:36.545Z,3.80
2023-04-14T09:00:19.706Z,4.45
2023-04-14T09:01:03.264Z,4.20
2023-04-14T09:01:46.482Z,4.18
2023-04-14T09:02:28.500Z,4.82
2023-04-14T09:03:11.535Z,3.75
2023-04-14T09:03:54.398Z,5.45
2023-04-14T09:04:37.551Z,2.97
2023-04-14T09:05:19.747Z,3.30
2023-04-14T09:06:02.659Z,3.17
2023-04-14T09:06:44.331Z,4.40
2023-04-14T09:07:28.904Z,3.83
2023-04-14T09:08:12.392Z,3.22
2023-04-14T09:08:54.244Z,3.53
2023-04-14T09:09:36.433Z,3.33
2023-04-14T09:10:20.904Z,4.63
2023-04-14T09:11:03.952Z,6.22
2023-04-14T09:11:46.365Z,6.10
2023-04-14T09:12:28.801Z,4.55
2023-04-14T09:13:12.590Z,2.67
2023-04-14T09:13:56.826Z,6.47
2023-04-14T09:14:39.882Z,4.57
2023-04-14T09:15:21.717Z,3.33
2023-04-14T09:16:03.661Z,5.95
2023-04-14T09:16:48.742Z,3.50
2023-04-14T09:17:31.841Z,3.22
2023-04-14T09:18:13.625Z,3.20
2023-04-14T09:18:57.517Z,2.35
2023-04-14T09:20:34.768Z,4.57
2023-04-14T09:21:31.069Z,3.83
2023-04-14T09:21:55.078Z,3.25
2023-04-14T09:22:37.072Z,5.25
2023-04-14T09:23:21.659Z,3.42
2023-04-14T09:24:04.007Z,4.07
2023-04-14T09:24:45.696Z,3.03
2023-04-14T09:25:27.363Z,2.90
2023-04-14T09:26:10.367Z,6.00
2023-04-14T09:26:52.880Z,5.00
2023-04-14T09:27:34.815Z,2.60
2023-04-14T09:28:16.571Z,2.22
2023-04-14T09:28:58.641Z,3.63
2023-04-14T09:29:41.555Z,2.97
2023-04-14T09:30:23.964Z,3.00
2023-04-14T09:31:06.008Z,3.92
2023-04-14T09:31:48.013Z,3.00
2023-04-14T09:32:30.649Z,2.38
2023-04-14T09:34:17.049Z,2.10
2023-04-14T09:34:58.859Z,3.25
2023-04-14T09:35:45.788Z,2.72
2023-04-14T09:36:29.051Z,3.63
2023-04-14T09:37:11.040Z,3.00
2023-04-14T09:37:52.695Z,2.60
2023-04-14T09:38:38.798Z,3.17
2023-04-14T09:39:20.497Z,2.38
2023-04-14T09:40:02.177Z,2.90
2023-04-14T09:40:44.962Z,6.25
2023-04-14T09:41:27.532Z,4.75
2023-04-14T09:42:09.176Z,3.60
2023-04-14T09:42:51.446Z,3.22
2023-04-14T09:43:33.279Z,3.45
2023-04-14T09:44:15.306Z,3.05